This is the latest recevied weather packets stored in our database for station/object JA7ZQY-10. If no packets are shown the sender has not sent any weather packets the latest 1 day(s).
| Time | Temp. | Humidity | Pressure | Rain* | Wind** | Luminosity | Snow |
|---|---|---|---|---|---|---|---|
| 1778063690 | 18.89° C | 41% | 1016.8 hPa | 0 mm | - | - | - |
| 1778063091 | 19.44° C | 41% | 1016.8 hPa | 0 mm | - | - | - |
| 1778061291 | 19.44° C | 40% | 1016.7 hPa | 0 mm | - | - | - |
| 1778059490 | 20.56° C | 35% | 1017.1 hPa | 0 mm | - | - | - |
| 1778058291 | 21.11° C | 33% | 1017 hPa | 0 mm | - | - | - |
| 1778057691 | 21.67° C | 32% | 1017.1 hPa | 0 mm | - | - | - |
| 1778056491 | 21.67° C | 31% | 1017.1 hPa | 0 mm | - | - | - |
| 1778055890 | 22.22° C | 31% | 1017.1 hPa | 0 mm | - | - | - |
| 1778054690 | 22.78° C | 28% | 1016.8 hPa | 0 mm | - | - | - |
| 1778053490 | 22.78° C | 28% | 1016.8 hPa | 0 mm | - | - | - |
| 1778052290 | 23.33° C | 28% | 1016.6 hPa | 0 mm | - | - | - |
| 1778051091 | 23.89° C | 26% | 1016.7 hPa | 0 mm | - | - | - |
| 1778048691 | 24.44° C | 24% | 1016.3 hPa | 0 mm | - | - | - |
| 1778048091 | 23.89° C | 23% | 1016.4 hPa | 0 mm | - | - | - |
| 1778046891 | 23.89° C | 27% | 1016.6 hPa | 0 mm | - | - | - |
| 1778046291 | 23.89° C | 27% | 1016.8 hPa | 0 mm | - | - | - |
| 1778045091 | 23.89° C | 26% | 1016.8 hPa | 0 mm | - | - | - |
| 1778043891 | 24.44° C | 26% | 1016.9 hPa | 0 mm | - | - | - |
| 1778043291 | 23.89° C | 26% | 1016.9 hPa | 0 mm | - | - | - |
| 1778042691 | 23.33° C | 27% | 1016.9 hPa | 0 mm | - | - | - |
| 1778042090 | 23.33° C | 28% | 1017.2 hPa | 0 mm | - | - | - |
| 1778041491 | 23.33° C | 29% | 1017.2 hPa | 0 mm | - | - | - |
| 1778040890 | 23.33° C | 30% | 1017.5 hPa | 0 mm | - | - | - |
| 1778040289 | 23.33° C | 30% | 1017.5 hPa | 0 mm | - | - | - |
| 1778039089 | 22.78° C | 30% | 1017.6 hPa | 0 mm | - | - | - |
* Rain latest hour (hover to see other rain measurements)
** Current wind speed in m/s (hover to see current wind gust speed)